Time;durP1;ratioP1;P1;durP2;ratioP2;P2;SDS_P1;SDS_P2;PMS_P1;PMS_P2;Temp;Humidity;BMP_temperature;BMP_pressure;BME280_temperature;BME280_humidity;BME280_pressure;Samples;Min_cycle;Max_cycle;Signal;HPM_P1;HPM_P2
2022/09/21 00:00:31;;;;;;;3.97;1.77;;;10.20;99.90;;;;;;5033243;28;20525;-71
2022/09/21 00:03:03;;;;;;;4.25;2.35;;;10.20;99.90;;;;;;4977093;28;20574;-71
2022/09/21 00:05:31;;;;;;;6.40;1.70;;;10.10;99.90;;;;;;4872721;28;20957;-71
2022/09/21 00:08:08;;;;;;;4.63;1.83;;;10.10;99.90;;;;;;4872096;28;21006;-71
2022/09/21 00:10:34;;;;;;;;;;;10.10;99.90;;;;;;4888925;28;21125;-71
2022/09/21 00:13:07;;;;;;;2.88;1.60;;;10.00;99.90;;;;;;4912819;28;21013;-71
2022/09/21 00:15:33;;;;;;;4.32;1.80;;;10.00;99.90;;;;;;4974901;28;20855;-71
2022/09/21 00:18:00;;;;;;;3.65;1.80;;;10.00;99.90;;;;;;5009663;28;20048;-71
2022/09/21 00:20:27;;;;;;;5.35;2.45;;;10.00;99.90;;;;;;5038027;28;20049;-71
2022/09/21 00:22:53;;;;;;;4.97;1.70;;;9.90;99.90;;;;;;5025527;28;20143;-70
2022/09/21 00:25:19;;;;;;;3.42;1.40;;;9.90;99.90;;;;;;5025289;28;20127;-70
2022/09/21 00:27:48;;;;;;;3.78;1.90;;;9.90;99.90;;;;;;5042107;28;20106;-70
2022/09/21 00:30:14;;;;;;;2.80;1.42;;;9.90;99.90;;;;;;5026112;28;20072;-69
2022/09/21 00:32:43;;;;;;;2.70;1.47;;;9.80;99.90;;;;;;5039847;28;20075;-69
2022/09/21 00:35:08;;;;;;;3.60;1.77;;;9.70;99.90;;;;;;5022594;28;20051;-69
2022/09/21 00:37:35;;;;;;;4.90;2.00;;;9.70;99.90;;;;;;5034784;28;20414;-70
2022/09/21 00:40:02;;;;;;;4.35;1.80;;;9.70;99.90;;;;;;5039882;28;20033;-70
2022/09/21 00:42:30;;;;;;;4.32;2.13;;;9.60;99.90;;;;;;5038863;28;21214;-70
2022/09/21 00:44:56;;;;;;;2.92;1.60;;;9.60;99.90;;;;;;5025412;28;20102;-70
2022/09/21 00:47:43;;;;;;;3.33;1.67;;;9.60;99.90;;;;;;5026364;28;20590;-70
2022/09/21 00:50:15;;;;;;;7.60;1.92;;;9.60;99.90;;;;;;5039752;28;20053;-71
2022/09/21 00:52:54;;;;;;;4.18;2.00;;;9.50;99.90;;;;;;5022349;28;20043;-70
2022/09/21 00:55:31;;;;;;;4.43;1.75;;;9.50;99.90;;;;;;5039040;28;20399;-70
2022/09/21 00:58:08;;;;;;;2.13;1.17;;;9.50;99.90;;;;;;5033788;28;20118;-71
2022/09/21 01:00:35;;;;;;;4.17;1.33;;;9.40;99.90;;;;;;5016078;28;20443;-70
2022/09/21 01:03:01;;;;;;;6.28;1.67;;;9.40;99.90;;;;;;5042471;28;20032;-70
2022/09/21 01:05:28;;;;;;;5.85;1.70;;;9.40;99.90;;;;;;5019945;28;20044;-71
2022/09/21 01:07:55;;;;;;;4.15;1.80;;;9.50;99.90;;;;;;5022093;28;20048;-70
2022/09/21 01:10:24;;;;;;;5.18;1.35;;;9.50;99.90;;;;;;5037429;28;20103;-71
2022/09/21 01:13:17;;;;;;;3.15;1.52;;;9.50;99.90;;;;;;5021377;28;20082;-71
2022/09/21 01:15:48;;;;;;;3.80;1.52;;;9.50;99.90;;;;;;5035208;28;20052;-70
2022/09/21 01:18:26;;;;;;;5.82;1.50;;;9.60;99.90;;;;;;5018065;28;20033;-70
2022/09/21 01:21:07;;;;;;;4.78;1.70;;;9.60;99.90;;;;;;5016135;28;20054;-71
2022/09/21 01:24:07;;;;;;;4.47;1.63;;;9.60;99.90;;;;;;5028015;28;20051;-71
2022/09/21 01:26:57;;;;;;;3.38;1.58;;;9.60;99.90;;;;;;5021552;28;20447;-71
2022/09/21 01:29:42;;;;;;;3.47;1.40;;;9.50;99.90;;;;;;5034802;28;20586;-70
2022/09/21 01:32:21;;;;;;;4.63;1.90;;;9.40;99.90;;;;;;5003666;28;20044;-71
2022/09/21 01:35:02;;;;;;;2.20;1.30;;;9.40;99.90;;;;;;5020343;28;20265;-71
2022/09/21 01:37:41;;;;;;;3.33;1.55;;;9.30;99.90;;;;;;5026057;28;20224;-71
2022/09/21 01:40:18;;;;;;;3.38;1.30;;;9.30;99.90;;;;;;5024448;28;20078;-70
2022/09/21 01:42:46;;;;;;;2.90;1.20;;;9.30;99.90;;;;;;5046088;28;20474;-71
2022/09/21 01:45:16;;;;;;;4.15;1.38;;;9.20;99.90;;;;;;5041853;28;20497;-70
2022/09/21 01:47:46;;;;;;;3.53;1.35;;;9.20;99.90;;;;;;5040265;28;20051;-71
2022/09/21 01:50:15;;;;;;;4.57;1.70;;;9.20;99.90;;;;;;5033401;28;20111;-71
2022/09/21 01:53:10;;;;;;;3.25;1.40;;;9.10;99.90;;;;;;5039759;28;20080;-71
2022/09/21 01:55:41;;;;;;;3.35;1.45;;;9.10;99.90;;;;;;5008871;28;20051;-71
2022/09/21 01:58:07;;;;;;;4.20;1.80;;;9.10;99.90;;;;;;5034999;22;20045;-73
2022/09/21 02:00:35;;;;;;;3.17;1.50;;;9.10;99.90;;;;;;5023861;28;20513;-71
2022/09/21 02:03:20;;;;;;;2.95;1.42;;;9.10;99.90;;;;;;5024436;28;20030;-71
2022/09/21 02:05:46;;;;;;;6.20;1.40;;;9.00;99.90;;;;;;5019723;28;20041;-72
2022/09/21 02:08:12;;;;;;;4.70;1.53;;;9.00;99.90;;;;;;5019952;28;20041;-70
2022/09/21 02:10:50;;;;;;;2.10;1.23;;;9.00;99.90;;;;;;5023748;28;20648;-70
2022/09/21 02:13:18;;;;;;;2.80;1.48;;;9.00;99.90;;;;;;5025678;28;20048;-71
2022/09/21 02:16:03;;;;;;;2.22;1.50;;;9.00;99.90;;;;;;5009976;28;20114;-71
2022/09/21 02:18:58;;;;;;;2.55;1.48;;;8.90;99.90;;;;;;5022375;28;20355;-72
2022/09/21 02:21:30;;;;;;;6.05;1.48;;;8.90;99.90;;;;;;5014671;28;20041;-70
2022/09/21 02:24:03;;;;;;;2.22;1.17;;;8.90;99.90;;;;;;5025619;28;20060;-71
2022/09/21 02:26:37;;;;;;;3.90;1.60;;;8.90;99.90;;;;;;5006901;28;20052;-71
2022/09/21 02:29:32;;;;;;;3.17;1.30;;;8.80;99.90;;;;;;5022217;28;20416;-70
2022/09/21 02:32:24;;;;;;;3.65;1.50;;;8.80;99.90;;;;;;5022243;28;20077;-71
2022/09/21 02:34:58;;;;;;;2.97;1.33;;;8.80;99.90;;;;;;5017734;28;20068;-71
2022/09/21 02:37:39;;;;;;;3.45;1.70;;;8.70;99.90;;;;;;5014678;28;20103;-71
2022/09/21 02:40:22;;;;;;;3.50;1.60;;;8.70;99.90;;;;;;5022592;28;20124;-72
2022/09/21 02:42:53;;;;;;;3.72;2.13;;;8.70;99.90;;;;;;5012421;28;20132;-70
2022/09/21 02:45:27;;;;;;;3.13;1.48;;;8.70;99.90;;;;;;5023262;28;20048;-71
2022/09/21 02:48:04;;;;;;;5.53;1.80;;;8.70;99.90;;;;;;5019589;28;20037;-70
2022/09/21 02:50:41;;;;;;;3.75;1.70;;;8.70;99.90;;;;;;5018206;28;20045;-71
2022/09/21 02:53:10;;;;;;;2.88;1.70;;;8.80;99.90;;;;;;5019349;28;20487;-72
2022/09/21 02:55:37;;;;;;;4.50;1.40;;;8.70;99.90;;;;;;5019991;28;20049;-72
2022/09/21 02:58:06;;;;;;;3.10;1.55;;;8.70;99.90;;;;;;5018054;28;20295;-72
2022/09/21 03:00:34;;;;;;;3.17;1.48;;;8.60;99.90;;;;;;5017767;28;20084;-71
2022/09/21 03:03:15;;;;;;;5.18;1.85;;;8.70;99.90;;;;;;5024790;28;20087;-71
2022/09/21 03:05:42;;;;;;;3.00;1.52;;;8.70;99.90;;;;;;5015981;28;20037;-71
2022/09/21 03:08:08;;;;;;;3.95;1.90;;;8.60;99.90;;;;;;5022652;28;20041;-71
2022/09/21 03:10:35;;;;;;;3.07;1.23;;;8.70;99.90;;;;;;5021518;28;20060;-71
2022/09/21 03:13:01;;;;;;;2.40;1.08;;;8.60;99.90;;;;;;5017620;28;20072;-71
2022/09/21 03:15:26;;;;;;;3.73;1.50;;;8.60;99.90;;;;;;5015461;28;20132;-71
2022/09/21 03:17:52;;;;;;;3.13;1.10;;;8.70;99.90;;;;;;5019597;28;20120;-71
2022/09/21 03:20:17;;;;;;;2.80;1.23;;;8.60;99.90;;;;;;5021521;28;20041;-70
2022/09/21 03:22:43;;;;;;;4.10;1.20;;;8.60;99.90;;;;;;5016181;28;20530;-72
2022/09/21 03:25:11;;;;;;;2.43;1.10;;;8.60;99.90;;;;;;5017958;28;20069;-72
2022/09/21 03:27:36;;;;;;;5.28;1.33;;;8.60;99.90;;;;;;5019932;28;20048;-70
2022/09/21 03:30:02;;;;;;;2.43;1.50;;;8.60;99.90;;;;;;5017964;28;20055;-71
2022/09/21 03:32:28;;;;;;;2.63;1.48;;;8.50;99.90;;;;;;5019340;28;20049;-71
2022/09/21 03:34:53;;;;;;;4.50;1.40;;;8.60;99.90;;;;;;5012876;28;20466;-72
2022/09/21 03:37:19;;;;;;;3.33;1.20;;;8.50;99.90;;;;;;5021564;28;20099;-71
2022/09/21 03:39:46;;;;;;;3.17;1.90;;;8.50;99.90;;;;;;5014685;28;20052;-72
2022/09/21 03:42:12;;;;;;;2.70;1.73;;;8.60;99.90;;;;;;5021919;28;20068;-70
2022/09/21 03:44:39;;;;;;;4.50;2.03;;;8.50;99.90;;;;;;5023444;28;20363;-72
2022/09/21 03:47:05;;;;;;;2.88;1.30;;;8.50;99.90;;;;;;5014457;28;20251;-71
2022/09/21 03:49:31;;;;;;;3.00;1.50;;;8.50;99.90;;;;;;5019913;28;20066;-71
2022/09/21 03:51:58;;;;;;;2.70;1.52;;;8.40;99.90;;;;;;5019479;28;20034;-71
2022/09/21 03:54:24;;;;;;;;;;;8.40;99.90;;;;;;5020930;28;20118;-71
2022/09/21 03:56:50;;;;;;;3.42;1.45;;;8.40;99.90;;;;;;5017971;28;19917;-72
2022/09/21 03:59:16;;;;;;;6.17;1.70;;;8.40;99.90;;;;;;5016990;28;20094;-71
2022/09/21 04:01:42;;;;;;;4.38;1.50;;;8.40;99.90;;;;;;5017785;28;20063;-71
2022/09/21 04:04:09;;;;;;;2.95;1.38;;;8.50;99.90;;;;;;5021319;28;20045;-70
2022/09/21 04:06:35;;;;;;;4.80;1.35;;;8.40;99.90;;;;;;5015701;28;20037;-71
2022/09/21 04:09:01;;;;;;;4.30;1.50;;;8.30;99.90;;;;;;5017694;28;20384;-71
2022/09/21 04:11:27;;;;;;;4.70;1.42;;;8.30;99.90;;;;;;5014388;28;20291;-71
2022/09/21 04:13:55;;;;;;;2.92;1.40;;;8.30;99.90;;;;;;5022174;28;20511;-72
2022/09/21 04:16:25;;;;;;;2.30;1.35;;;8.30;99.90;;;;;;5008055;28;20087;-72
2022/09/21 04:18:51;;;;;;;2.67;1.40;;;8.30;99.90;;;;;;5017240;28;20127;-71
2022/09/21 04:21:18;;;;;;;5.07;1.25;;;8.20;99.90;;;;;;5020911;28;20140;-71
2022/09/21 04:23:43;;;;;;;4.50;1.83;;;8.20;99.90;;;;;;5018978;28;20108;-71
2022/09/21 04:26:27;;;;;;;4.07;1.10;;;8.20;99.90;;;;;;5022700;28;20032;-72
2022/09/21 04:28:54;;;;;;;4.20;1.73;;;8.20;99.90;;;;;;5019532;28;20506;-71
2022/09/21 04:31:20;;;;;;;;;;;8.20;99.90;;;;;;5018975;28;20059;-71
2022/09/21 04:33:49;;;;;;;3.15;1.50;;;8.20;99.90;;;;;;5019710;28;19940;-71
2022/09/21 04:36:19;;;;;;;2.58;1.30;;;8.20;99.90;;;;;;5020081;28;20087;-71
2022/09/21 04:38:45;;;;;;;2.80;1.48;;;8.10;99.90;;;;;;5016388;28;20038;-72
2022/09/21 04:41:11;;;;;;;5.97;1.45;;;8.10;99.90;;;;;;5017610;28;20080;-70
2022/09/21 04:43:40;;;;;;;4.38;1.90;;;8.10;99.90;;;;;;5015735;28;20049;-71
2022/09/21 04:46:09;;;;;;;2.92;1.38;;;8.20;99.90;;;;;;5017593;28;20045;-71
2022/09/21 04:48:34;;;;;;;5.00;1.52;;;8.10;99.90;;;;;;5016166;28;20062;-71
2022/09/21 04:51:01;;;;;;;5.00;1.50;;;8.10;99.90;;;;;;5019102;28;20052;-72
2022/09/21 04:53:29;;;;;;;3.08;1.60;;;8.10;99.90;;;;;;5018928;28;20138;-70
2022/09/21 04:55:57;;;;;;;3.60;1.42;;;8.10;99.90;;;;;;5020913;28;20045;-71
2022/09/21 04:58:23;;;;;;;3.60;1.50;;;8.10;99.90;;;;;;5018275;28;20048;-71
2022/09/21 05:00:54;;;;;;;2.80;1.60;;;8.10;99.90;;;;;;5024230;28;20045;-71
2022/09/21 05:03:20;;;;;;;3.10;1.58;;;8.10;99.90;;;;;;5019894;28;20037;-71
2022/09/21 05:05:53;;;;;;;;;;;8.10;99.90;;;;;;5018757;28;20471;-71
2022/09/21 05:11:17;;;;;;;3.55;1.40;;;8.00;99.90;;;;;;4999441;28;20049;-71
2022/09/21 05:13:42;;;;;;;3.85;1.50;;;8.00;99.90;;;;;;5017264;28;20547;-70
2022/09/21 05:16:08;;;;;;;3.03;1.70;;;8.00;99.90;;;;;;5011580;28;20037;-72
2022/09/21 05:18:35;;;;;;;3.47;1.35;;;8.00;99.90;;;;;;5012918;28;20041;-72
2022/09/21 05:21:02;;;;;;;6.68;1.85;;;8.00;99.90;;;;;;5019811;28;20116;-71
2022/09/21 05:23:30;;;;;;;3.40;1.63;;;8.00;99.90;;;;;;5014597;28;20064;-73
2022/09/21 05:25:56;;;;;;;3.33;1.90;;;8.00;99.90;;;;;;5016524;28;20037;-71
2022/09/21 05:28:23;;;;;;;4.10;1.65;;;8.00;99.90;;;;;;5021168;28;20042;-71
2022/09/21 05:30:56;;;;;;;;;;;8.00;99.90;;;;;;5016437;28;20118;-71
2022/09/21 05:33:25;;;;;;;2.78;1.40;;;8.00;99.90;;;;;;5017016;28;19921;-72
2022/09/21 05:35:54;;;;;;;4.47;1.70;;;8.00;99.90;;;;;;5015209;28;20067;-73
2022/09/21 05:38:20;;;;;;;3.50;1.42;;;7.90;99.90;;;;;;5018796;28;20109;-70
2022/09/21 05:40:49;;;;;;;3.03;1.92;;;7.90;99.90;;;;;;5014692;28;20045;-71
2022/09/21 05:43:15;;;;;;;4.53;1.75;;;7.90;99.90;;;;;;5013694;28;20055;-72
2022/09/21 05:45:44;;;;;;;3.35;1.88;;;7.90;99.90;;;;;;5018194;28;20479;-72
2022/09/21 05:48:48;;;;;;;3.08;1.80;;;7.90;99.90;;;;;;5018223;28;20464;-71
2022/09/21 05:51:36;;;;;;;4.38;1.77;;;7.90;99.90;;;;;;4981819;28;20194;-72
2022/09/21 05:54:14;;;;;;;3.85;1.67;;;7.90;99.90;;;;;;5019029;28;20129;-71
2022/09/21 05:56:43;;;;;;;5.05;1.80;;;7.90;99.90;;;;;;5019094;28;20071;-72
2022/09/21 05:59:30;;;;;;;3.20;1.58;;;7.90;99.90;;;;;;5021801;28;20036;-71
2022/09/21 06:02:13;;;;;;;6.25;2.15;;;8.00;99.90;;;;;;5008464;28;20053;-71
2022/09/21 06:04:39;;;;;;;7.13;1.90;;;8.00;99.90;;;;;;5011938;28;20383;-71
2022/09/21 06:07:04;;;;;;;4.68;1.77;;;8.00;99.90;;;;;;5018898;28;20038;-71
2022/09/21 06:09:30;;;;;;;6.70;2.00;;;8.00;99.90;;;;;;5020866;28;20585;-71
2022/09/21 06:11:56;;;;;;;3.70;1.57;;;8.00;99.90;;;;;;5018161;28;20395;-72
2022/09/21 06:14:24;;;;;;;4.60;2.00;;;8.10;99.90;;;;;;5021338;28;20585;-70
2022/09/21 06:16:50;;;;;;;3.33;1.83;;;8.10;99.90;;;;;;5018492;28;20117;-72
2022/09/21 06:19:16;;;;;;;3.20;1.75;;;8.10;99.90;;;;;;5019540;28;20201;-71
2022/09/21 06:21:42;;;;;;;5.63;2.28;;;8.10;99.90;;;;;;5020951;28;20287;-71
2022/09/21 06:24:08;;;;;;;4.25;2.00;;;8.10;99.90;;;;;;5019813;28;20175;-70
2022/09/21 06:26:34;;;;;;;8.20;2.13;;;8.20;99.90;;;;;;5019687;28;20046;-72
2022/09/21 06:28:59;;;;;;;6.23;2.00;;;8.20;99.90;;;;;;5022270;28;20139;-71
2022/09/21 06:31:29;;;;;;;5.40;2.50;;;8.30;99.90;;;;;;5024926;28;20289;-73
2022/09/21 06:33:55;;;;;;;4.20;2.13;;;8.40;99.90;;;;;;5010197;28;20052;-73
2022/09/21 06:36:20;;;;;;;2.85;2.00;;;8.40;99.90;;;;;;5007496;28;20042;-77
2022/09/21 06:38:46;;;;;;;5.47;2.20;;;8.40;99.90;;;;;;5021353;28;20064;-73
2022/09/21 06:41:12;;;;;;;5.23;2.43;;;8.50;99.90;;;;;;5020799;28;20025;-77
2022/09/21 06:43:37;;;;;;;8.57;3.53;;;8.60;99.90;;;;;;5004615;28;20080;-73
2022/09/21 06:46:03;;;;;;;15.53;5.47;;;8.60;99.90;;;;;;5020800;28;20040;-73
2022/09/21 06:48:31;;;;;;;25.90;7.18;;;8.70;99.90;;;;;;5022329;28;20052;-73
2022/09/21 06:51:01;;;;;;;24.60;6.20;;;8.80;99.90;;;;;;5019048;28;20049;-73
2022/09/21 06:53:28;;;;;;;20.90;5.72;;;8.80;99.90;;;;;;5016449;28;20080;-74
2022/09/21 06:56:03;;;;;;;16.73;5.03;;;8.90;99.90;;;;;;5016017;28;20068;-73
2022/09/21 06:58:30;;;;;;;6.75;2.75;;;9.00;99.90;;;;;;5034994;28;20049;-73
2022/09/21 07:00:56;;;;;;;6.55;2.45;;;9.20;99.90;;;;;;5022127;28;20056;-73
2022/09/21 07:03:21;;;;;;;6.13;1.73;;;9.20;99.90;;;;;;5023138;28;20037;-73
2022/09/21 07:05:48;;;;;;;5.17;2.07;;;9.20;99.90;;;;;;5024992;28;20148;-73
2022/09/21 07:08:14;;;;;;;;;;;9.40;99.90;;;;;;5023508;28;20054;-73
2022/09/21 07:10:39;;;;;;;7.10;1.70;;;9.50;99.90;;;;;;5023660;28;19928;-73
2022/09/21 07:13:07;;;;;;;7.13;2.00;;;9.60;99.90;;;;;;5016226;28;20059;-73
2022/09/21 07:15:33;;;;;;;3.88;2.42;;;9.60;99.90;;;;;;5015526;28;20430;-73
2022/09/21 07:17:58;;;;;;;3.93;2.00;;;9.70;99.90;;;;;;5013802;28;20033;-73
2022/09/21 07:20:24;;;;;;;4.27;1.70;;;9.80;99.90;;;;;;5021598;28;20052;-73
2022/09/21 07:22:50;;;;;;;3.83;1.90;;;9.90;99.90;;;;;;5020396;28;20064;-73
2022/09/21 07:25:15;;;;;;;3.93;1.90;;;10.10;99.90;;;;;;5021505;28;20128;-73
2022/09/21 07:27:41;;;;;;;3.33;1.63;;;10.10;99.90;;;;;;5017797;28;20056;-73
2022/09/21 07:30:08;;;;;;;6.70;1.80;;;10.20;99.90;;;;;;5022473;28;20129;-74
2022/09/21 07:32:34;;;;;;;2.78;1.25;;;10.40;99.90;;;;;;5020889;28;20062;-73
2022/09/21 07:35:00;;;;;;;3.35;1.98;;;10.50;99.90;;;;;;5021277;28;20133;-74
2022/09/21 07:37:27;;;;;;;6.65;1.85;;;10.50;99.90;;;;;;5022851;28;20128;-74
2022/09/21 07:39:52;;;;;;;;;;;10.70;99.90;;;;;;5023197;28;20045;-73
2022/09/21 07:42:20;;;;;;;5.13;1.45;;;10.70;99.90;;;;;;5020385;28;20615;-74
2022/09/21 07:44:46;;;;;;;2.95;1.13;;;10.80;99.90;;;;;;5015256;28;20468;-73
2022/09/21 07:47:12;;;;;;;4.15;1.13;;;10.90;99.90;;;;;;5022485;28;20224;-74
2022/09/21 07:49:38;;;;;;;3.28;1.40;;;11.00;99.90;;;;;;5022118;28;20069;-74
2022/09/21 07:52:04;;;;;;;2.60;1.20;;;11.10;99.90;;;;;;5021864;28;20050;-73
2022/09/21 07:54:32;;;;;;;4.50;1.30;;;11.20;99.90;;;;;;5020384;28;20060;-73
2022/09/21 07:59:39;;;;;;;4.43;1.25;;;11.40;99.90;;;;;;5065599;28;20045;-71
2022/09/21 08:02:04;;;;;;;2.20;1.17;;;11.50;99.90;;;;;;5035347;28;20095;-71
2022/09/21 08:04:30;;;;;;;8.70;1.20;;;11.60;99.90;;;;;;5027311;28;20045;-71
2022/09/21 08:06:55;;;;;;;3.90;0.83;;;11.70;99.90;;;;;;5030864;28;20363;-71
2022/09/21 08:09:21;;;;;;;9.43;1.10;;;11.80;99.90;;;;;;5008690;28;20039;-72
2022/09/21 08:11:47;;;;;;;4.67;1.00;;;11.90;99.90;;;;;;5023963;28;20079;-71
2022/09/21 08:14:18;;;;;;;5.23;0.73;;;12.00;99.90;;;;;;5049921;28;20128;-71
2022/09/21 08:16:46;;;;;;;3.08;0.93;;;12.10;99.90;;;;;;5045555;28;20277;-71
2022/09/21 08:19:16;;;;;;;4.25;1.27;;;12.20;99.90;;;;;;5027502;28;20443;-71
2022/09/21 08:21:42;;;;;;;3.85;0.70;;;12.40;99.90;;;;;;5041062;28;20413;-72
2022/09/21 08:24:08;;;;;;;1.20;0.50;;;12.40;99.90;;;;;;5044687;28;20037;-71
2022/09/21 08:26:34;;;;;;;4.13;0.88;;;12.50;99.90;;;;;;5044713;28;20049;-71
2022/09/21 08:29:00;;;;;;;3.05;0.98;;;12.60;99.90;;;;;;5037571;28;20052;-71
2022/09/21 08:31:25;;;;;;;4.57;0.57;;;12.80;99.90;;;;;;5044203;28;20037;-71
2022/09/21 08:33:53;;;;;;;2.28;0.70;;;12.80;99.90;;;;;;5051842;28;20073;-71
2022/09/21 08:36:19;;;;;;;3.67;0.40;;;13.00;99.90;;;;;;5037536;28;20473;-71
2022/09/21 08:38:46;;;;;;;6.60;0.70;;;13.00;99.90;;;;;;5026330;28;20064;-71
2022/09/21 08:41:17;;;;;;;5.15;0.70;;;13.20;99.90;;;;;;5047080;28;20045;-71
2022/09/21 08:43:45;;;;;;;3.13;0.60;;;13.30;99.90;;;;;;5015623;28;20040;-71
2022/09/21 08:46:15;;;;;;;2.75;0.80;;;13.30;99.90;;;;;;5028797;28;20037;-71
2022/09/21 08:49:09;;;;;;;3.50;0.35;;;13.50;99.90;;;;;;5039801;28;20037;-72
2022/09/21 08:51:46;;;;;;;3.80;0.45;;;13.60;99.90;;;;;;5029984;28;20152;-71
2022/09/21 08:54:22;;;;;;;4.13;0.45;;;13.60;99.90;;;;;;5044317;28;20032;-71
2022/09/21 08:56:49;;;;;;;2.97;0.60;;;13.70;99.90;;;;;;5043212;28;20049;-71
2022/09/21 08:59:14;;;;;;;2.85;0.70;;;13.80;99.90;;;;;;5024246;28;20041;-71
2022/09/21 09:02:04;;;;;;;4.33;0.60;;;13.90;99.90;;;;;;5055946;28;20048;-71
2022/09/21 09:04:33;;;;;;;3.15;0.43;;;13.90;99.90;;;;;;5038856;28;20282;-71
2022/09/21 09:07:17;;;;;;;1.45;0.32;;;14.00;99.90;;;;;;5029758;28;20494;-71
2022/09/21 09:09:46;;;;;;;2.58;0.50;;;14.10;99.90;;;;;;5025164;28;20041;-71
2022/09/21 09:12:20;;;;;;;2.75;0.38;;;14.20;99.90;;;;;;5025624;28;20128;-71
2022/09/21 09:14:46;;;;;;;0.40;0.20;;;14.20;99.90;;;;;;5022438;28;20041;-72
2022/09/21 09:17:43;;;;;;;3.57;0.90;;;14.20;99.90;;;;;;5017540;28;20040;-71
2022/09/21 09:20:12;;;;;;;2.25;0.40;;;14.20;99.90;;;;;;5049106;28;20090;-71
2022/09/21 09:22:51;;;;;;;2.88;0.63;;;14.20;99.90;;;;;;5002971;28;20118;-71
2022/09/21 09:25:20;;;;;;;1.85;0.20;;;14.10;99.90;;;;;;5052182;28;20441;-71
2022/09/21 09:27:56;;;;;;;2.67;0.40;;;14.10;99.90;;;;;;5046518;28;20507;-71
2022/09/21 09:30:32;;;;;;;2.70;0.32;;;14.10;99.90;;;;;;5031427;28;20051;-71
2022/09/21 09:33:05;;;;;;;1.67;0.77;;;14.10;99.90;;;;;;5038980;28;20067;-71
2022/09/21 09:35:35;;;;;;;2.08;0.30;;;14.10;99.90;;;;;;5039977;28;20045;-71
2022/09/21 09:38:30;;;;;;;2.13;0.95;;;14.10;99.90;;;;;;5025280;28;20080;-72
2022/09/21 09:41:24;;;;;;;1.17;0.28;;;14.10;99.90;;;;;;5025238;28;20561;-71
2022/09/21 09:44:05;;;;;;;3.40;0.40;;;14.10;99.90;;;;;;5024935;28;20102;-71
2022/09/21 09:47:15;;;;;;;2.45;0.50;;;14.10;99.90;;;;;;5032891;28;20048;-71
2022/09/21 09:50:08;;;;;;;3.40;0.57;;;14.10;99.90;;;;;;5039754;28;20057;-71
2022/09/21 09:52:35;;;;;;;1.08;0.30;;;14.10;99.90;;;;;;5023219;28;20445;-71
2022/09/21 09:55:16;;;;;;;2.55;0.40;;;14.10;99.90;;;;;;5023801;28;20097;-71
2022/09/21 09:57:42;;;;;;;0.82;0.38;;;14.10;99.90;;;;;;5049911;28;20413;-71
2022/09/21 10:00:13;;;;;;;2.20;0.52;;;14.10;99.90;;;;;;5045128;28;20095;-72
2022/09/21 10:02:51;;;;;;;4.55;0.45;;;14.20;99.90;;;;;;5025145;28;20096;-72
2022/09/21 10:05:24;;;;;;;2.53;0.25;;;14.20;99.90;;;;;;5038704;28;20495;-72
2022/09/21 10:07:50;;;;;;;3.00;0.40;;;14.10;99.90;;;;;;5031530;28;20531;-72
2022/09/21 10:10:31;;;;;;;2.28;0.52;;;14.20;99.90;;;;;;5026256;28;20541;-71
2022/09/21 10:13:22;;;;;;;4.38;0.60;;;14.20;99.90;;;;;;5042513;28;20032;-72
2022/09/21 10:15:50;;;;;;;3.05;0.40;;;14.20;99.90;;;;;;5033087;28;20041;-72
2022/09/21 10:18:37;;;;;;;0.73;0.20;;;14.20;99.90;;;;;;5038068;28;20033;-72
2022/09/21 10:21:07;;;;;;;1.83;0.40;;;14.30;99.90;;;;;;5038938;28;20044;-72
2022/09/21 10:23:35;;;;;;;3.70;0.40;;;14.30;99.90;;;;;;5048875;28;20110;-72
2022/09/21 10:26:09;;;;;;;2.85;0.43;;;14.30;99.90;;;;;;5030841;28;20067;-72
2022/09/21 10:28:35;;;;;;;1.95;0.40;;;14.30;99.90;;;;;;5032808;28;20078;-72
2022/09/21 10:31:09;;;;;;;11.60;0.47;;;14.40;99.90;;;;;;5056078;28;20047;-72
2022/09/21 10:33:47;;;;;;;3.35;0.40;;;14.50;99.90;;;;;;5029415;28;20041;-72
2022/09/21 10:36:31;;;;;;;1.65;0.38;;;14.70;99.90;;;;;;5028442;28;20044;-72
2022/09/21 10:39:21;;;;;;;3.97;0.50;;;14.90;99.90;;;;;;5023318;28;20041;-72
2022/09/21 10:42:03;;;;;;;3.80;0.70;;;15.10;99.90;;;;;;5030088;28;20040;-72
2022/09/21 10:44:42;;;;;;;1.60;0.40;;;15.20;99.90;;;;;;5044335;28;20072;-72
2022/09/21 10:47:18;;;;;;;0.77;0.28;;;15.50;99.90;;;;;;5036591;28;20041;-72
2022/09/21 10:49:50;;;;;;;2.00;0.40;;;15.70;99.90;;;;;;5039188;28;20037;-72
2022/09/21 10:52:19;;;;;;;2.58;0.32;;;15.90;99.90;;;;;;5004930;28;20087;-72
2022/09/21 10:54:51;;;;;;;2.47;0.28;;;16.10;99.90;;;;;;5005831;28;20047;-72
2022/09/21 10:57:20;;;;;;;2.63;1.02;;;16.30;99.90;;;;;;5045197;28;20221;-72
2022/09/21 10:59:46;;;;;;;6.95;0.38;;;16.40;99.90;;;;;;5009475;28;20084;-72
2022/09/21 11:02:28;;;;;;;2.20;0.32;;;16.50;99.90;;;;;;5037059;28;20041;-72
2022/09/21 11:05:16;;;;;;;1.15;0.30;;;16.60;99.90;;;;;;5028803;28;20080;-72
2022/09/21 11:08:02;;;;;;;2.20;0.30;;;16.80;99.90;;;;;;5041702;28;20178;-72
2022/09/21 11:10:47;;;;;;;1.73;0.35;;;16.90;99.90;;;;;;5042413;28;20522;-72
2022/09/21 11:13:40;;;;;;;4.03;0.52;;;17.00;99.90;;;;;;5047801;28;20495;-72
2022/09/21 11:16:13;;;;;;;1.67;0.47;;;17.20;99.90;;;;;;5028493;28;20041;-72
2022/09/21 11:19:26;;;;;;;1.00;0.30;;;17.30;99.90;;;;;;5027097;28;20471;-72
2022/09/21 11:22:11;;;;;;;4.28;0.57;;;17.40;99.90;;;;;;4953289;28;20138;-72
2022/09/21 11:24:58;;;;;;;3.83;0.30;;;17.50;99.90;;;;;;5028529;28;20041;-71
2022/09/21 11:27:35;;;;;;;1.57;0.33;;;17.60;99.90;;;;;;5046684;28;20889;-72
2022/09/21 11:30:10;;;;;;;2.05;0.30;;;17.70;99.90;;;;;;5045192;28;20267;-72
2022/09/21 11:32:39;;;;;;;2.95;0.38;;;17.80;99.90;;;;;;5030138;28;20572;-72
2022/09/21 11:35:25;;;;;;;2.33;0.55;;;17.90;99.90;;;;;;5050988;28;20247;-72
2022/09/21 11:38:04;;;;;;;2.27;0.30;;;18.00;99.90;;;;;;5036988;28;20442;-72
2022/09/21 11:40:48;;;;;;;0.70;0.40;;;18.10;99.90;;;;;;5041794;28;20049;-72
2022/09/21 11:43:23;;;;;;;1.30;0.30;;;18.20;99.90;;;;;;5041078;28;20440;-72
2022/09/21 11:46:26;;;;;;;1.33;0.30;;;18.30;99.90;;;;;;5043043;28;20054;-71
2022/09/21 11:49:13;;;;;;;3.28;0.28;;;18.40;99.90;;;;;;5008057;28;20041;-72
2022/09/21 11:52:08;;;;;;;2.55;0.40;;;18.40;99.90;;;;;;5044820;28;20490;-72
2022/09/21 11:55:12;;;;;;;2.35;0.40;;;18.40;99.90;;;;;;5030808;28;20084;-71
2022/09/21 11:58:00;;;;;;;1.77;0.40;;;18.40;99.90;;;;;;5042488;28;20297;-72
2022/09/21 12:00:33;;;;;;;1.30;0.60;;;18.50;99.90;;;;;;5048830;28;20403;-72
2022/09/21 12:03:22;;;;;;;1.73;0.22;;;18.60;99.90;;;;;;5016044;28;20053;-72
2022/09/21 12:06:20;;;;;;;1.58;0.35;;;18.80;99.90;;;;;;5021523;28;20044;-71
2022/09/21 12:09:10;;;;;;;1.40;0.28;;;18.90;99.90;;;;;;5052337;28;20114;-72
2022/09/21 12:12:27;;;;;;;0.95;0.20;;;19.00;99.90;;;;;;5045216;28;20162;-73
2022/09/21 12:15:21;;;;;;;2.58;0.40;;;19.10;99.90;;;;;;5031019;28;20052;-73
2022/09/21 12:17:59;;;;;;;2.00;0.60;;;19.20;99.90;;;;;;5018605;28;20171;-73
2022/09/21 12:20:44;;;;;;;2.75;0.28;;;19.30;99.90;;;;;;4853271;28;20474;-69
2022/09/21 12:23:26;;;;;;;2.85;0.40;;;19.40;99.80;;;;;;4829036;28;20292;-70
2022/09/21 12:25:57;;;;;;;0.95;0.20;;;19.50;99.90;;;;;;4838447;28;20344;-70
2022/09/21 12:28:38;;;;;;;0.80;0.20;;;19.60;99.90;;;;;;4841892;28;20610;-75
2022/09/21 12:31:14;;;;;;;2.88;0.55;;;19.60;99.80;;;;;;5046744;28;20395;-74
2022/09/21 12:34:08;;;;;;;0.63;0.20;;;19.70;98.80;;;;;;5045495;28;20040;-73
2022/09/21 12:37:15;;;;;;;2.80;0.47;;;19.70;97.70;;;;;;5025755;28;20057;-73
2022/09/21 12:39:58;;;;;;;3.03;0.40;;;19.80;98.10;;;;;;4865657;28;20560;-74
2022/09/21 12:42:52;;;;;;;1.60;0.22;;;20.00;97.70;;;;;;5037337;28;20788;-74
2022/09/21 12:45:54;;;;;;;1.25;0.20;;;20.10;97.10;;;;;;5030491;28;20212;-74
2022/09/21 12:48:55;;;;;;;2.45;0.30;;;20.10;95.00;;;;;;4940919;28;20223;-75
2022/09/21 12:51:33;;;;;;;4.22;0.70;;;20.20;95.20;;;;;;4996370;28;20653;-75
2022/09/21 12:54:21;;;;;;;0.85;0.22;;;20.30;96.80;;;;;;5012945;28;20284;-76
2022/09/21 12:57:11;;;;;;;1.48;0.25;;;20.40;95.10;;;;;;4871382;28;20270;-72
2022/09/21 13:00:16;;;;;;;5.20;0.30;;;20.40;86.20;;;;;;4866672;28;20262;-73
2022/09/21 13:02:55;;;;;;;3.97;0.30;;;20.40;80.50;;;;;;4838142;28;20441;-73
2022/09/21 13:05:35;;;;;;;0.57;0.20;;;20.50;85.80;;;;;;4960777;28;20498;-73
2022/09/21 13:08:09;;;;;;;1.42;0.13;;;20.40;88.10;;;;;;5022987;28;20094;-73
2022/09/21 13:10:41;;;;;;;3.13;0.40;;;20.40;84.10;;;;;;5047207;28;20045;-73
2022/09/21 13:13:51;;;;;;;1.23;0.30;;;20.50;86.10;;;;;;5015129;28;20502;-73
2022/09/21 13:16:28;;;;;;;3.15;0.20;;;20.50;80.00;;;;;;5022823;28;20041;-72
2022/09/21 13:19:04;;;;;;;0.75;0.30;;;20.60;86.60;;;;;;5045492;28;20067;-72
2022/09/21 13:21:51;;;;;;;0.98;0.28;;;20.70;84.90;;;;;;4968093;28;20135;-73
2022/09/21 13:24:29;;;;;;;1.02;0.28;;;20.80;84.20;;;;;;4956108;28;20049;-71
2022/09/21 13:26:58;;;;;;;1.23;0.20;;;20.80;81.50;;;;;;5057244;28;20136;-72
2022/09/21 13:29:32;;;;;;;1.50;0.40;;;20.90;83.60;;;;;;5029350;28;20387;-73
2022/09/21 13:32:13;;;;;;;2.83;0.35;;;20.90;80.40;;;;;;5039717;28;20041;-72
2022/09/21 13:34:59;;;;;;;;;;;;;;;;;;;;;